Time;durP1;ratioP1;P1;durP2;ratioP2;P2;SDS_P1;SDS_P2;PMS_P1;PMS_P2;Temp;Humidity;BMP_temperature;BMP_pressure;BME280_temperature;BME280_humidity;BME280_pressure;Samples;Min_cycle;Max_cycle;Signal;HPM_P1;HPM_P2
2022/09/11 00:01:06;;;;;;;;;;;15.80;99.90;;;;;;4983943;28;20196;-67
2022/09/11 00:03:34;;;;;;;;;;;15.80;99.90;;;;;;4984475;28;20204;-66
2022/09/11 00:06:01;;;;;;;;;;;15.80;99.90;;;;;;4984096;28;20215;-66
2022/09/11 00:08:30;;;;;;;;;;;15.80;99.90;;;;;;4983800;28;20206;-65
2022/09/11 00:11:03;;;;;;;;;;;15.80;99.90;;;;;;4983289;28;20298;-67
2022/09/11 00:13:32;;;;;;;;;;;15.80;99.90;;;;;;4983706;28;20207;-66
2022/09/11 00:16:00;;;;;;;;;;;15.80;99.90;;;;;;4982149;28;20716;-65
2022/09/11 00:18:28;;;;;;;;;;;15.70;99.90;;;;;;4983150;28;20210;-65
2022/09/11 00:20:57;;;;;;;;;;;15.70;99.90;;;;;;4987780;28;20691;-65
2022/09/11 00:23:26;;;;;;;;;;;15.70;99.90;;;;;;4992910;28;20206;-65
2022/09/11 00:25:53;;;;;;;;;;;15.70;99.90;;;;;;4988067;28;20203;-68
2022/09/11 00:28:22;;;;;;;;;;;15.70;99.90;;;;;;4983993;28;20199;-65
2022/09/11 00:30:58;;;;;;;;;;;15.80;99.90;;;;;;4985411;28;20215;-65
2022/09/11 00:33:26;;;;;;;;;;;15.70;99.90;;;;;;4991085;28;20206;-65
2022/09/11 00:35:57;;;;;;;;;;;15.80;99.90;;;;;;4983237;28;20204;-67
2022/09/11 00:38:26;;;;;;;;;;;15.80;99.90;;;;;;4982838;28;20196;-65
2022/09/11 00:40:54;;;;;;;;;;;15.80;99.90;;;;;;4983695;28;20200;-64
2022/09/11 00:43:22;;;;;;;;;;;15.80;99.90;;;;;;4984439;28;20264;-64
2022/09/11 00:45:53;;;;;;;;;;;15.80;99.90;;;;;;4984598;28;20276;-64
2022/09/11 00:48:24;;;;;;;;;;;15.80;99.90;;;;;;4983814;28;20210;-65
2022/09/11 00:50:54;;;;;;;;;;;15.70;99.90;;;;;;4983440;28;21435;-65
2022/09/11 00:53:23;;;;;;;;;;;15.80;99.90;;;;;;4982620;28;20697;-65
2022/09/11 00:55:53;;;;;;;;;;;15.80;99.90;;;;;;4984100;28;20716;-64
2022/09/11 00:58:22;;;;;;;;;;;15.70;99.90;;;;;;4984104;28;20713;-64
2022/09/11 01:00:52;;;;;;;;;;;15.80;99.90;;;;;;4984628;28;20196;-64
2022/09/11 01:03:19;;;;;;;;;;;15.90;99.90;;;;;;4982233;28;20255;-66
2022/09/11 01:05:48;;;;;;;;;;;16.00;99.90;;;;;;4983750;28;20211;-65
2022/09/11 01:08:16;;;;;;;;;;;16.00;99.90;;;;;;4983929;28;20673;-66
2022/09/11 01:10:50;;;;;;;;;;;16.10;99.90;;;;;;4982971;28;20210;-64
2022/09/11 01:13:22;;;;;;;;;;;16.10;99.90;;;;;;4984053;28;20283;-64
2022/09/11 01:16:02;;;;;;;;;;;16.10;99.90;;;;;;4984705;28;20210;-68
2022/09/11 01:18:31;;;;;;;;;;;16.00;99.90;;;;;;4982848;28;20211;-65
2022/09/11 01:21:10;;;;;;;;;;;16.10;99.90;;;;;;4981286;28;20196;-65
2022/09/11 01:23:59;;;;;;;;;;;16.20;99.90;;;;;;4982757;28;20204;-65
2022/09/11 01:26:37;;;;;;;;;;;16.20;99.90;;;;;;4984355;28;20298;-64
2022/09/11 01:29:09;;;;;;;;;;;16.20;99.90;;;;;;4985965;28;20669;-67
2022/09/11 01:31:41;;;;;;;;;;;16.10;99.90;;;;;;4984505;28;20199;-64
2022/09/11 01:34:13;;;;;;;;;;;16.10;99.90;;;;;;4984243;28;20210;-64
2022/09/11 01:36:43;;;;;;;;;;;16.00;99.90;;;;;;4986907;28;20210;-67
2022/09/11 01:39:11;;;;;;;;;;;16.00;99.90;;;;;;4984820;28;20223;-64
2022/09/11 01:41:44;;;;;;;;;;;16.00;99.90;;;;;;4986273;28;20571;-64
2022/09/11 01:44:16;;;;;;;;;;;15.90;99.90;;;;;;4987323;28;20628;-67
2022/09/11 01:46:45;;;;;;;;;;;15.90;99.90;;;;;;4987455;28;20574;-65
2022/09/11 01:49:15;;;;;;;;;;;15.90;99.90;;;;;;4987321;28;20196;-64
2022/09/11 01:51:43;;;;;;;;;;;15.80;99.90;;;;;;4986984;28;20214;-67
2022/09/11 01:54:16;;;;;;;;;;;15.80;99.90;;;;;;4986406;28;20210;-68
2022/09/11 01:56:47;;;;;;;;;;;15.80;99.90;;;;;;4986974;28;20210;-64
2022/09/11 01:59:17;;;;;;;;;;;15.70;99.90;;;;;;4987520;28;20195;-64
2022/09/11 02:01:49;;;;;;;;;;;15.80;99.90;;;;;;4988603;28;20198;-64
2022/09/11 02:04:18;;;;;;;;;;;15.70;99.90;;;;;;4986812;28;20227;-64
2022/09/11 02:06:48;;;;;;;;;;;15.70;99.90;;;;;;4986056;28;20195;-64
2022/09/11 02:09:20;;;;;;;;;;;15.80;99.90;;;;;;4986687;28;20589;-64
2022/09/11 02:11:49;;;;;;;;;;;15.90;99.90;;;;;;4985533;28;20192;-64
2022/09/11 02:14:23;;;;;;;;;;;15.90;99.90;;;;;;4986812;28;20195;-64
2022/09/11 02:16:52;;;;;;;;;;;15.90;99.90;;;;;;4986754;28;20218;-66
2022/09/11 02:19:22;;;;;;;;;;;15.90;99.90;;;;;;4985895;28;20204;-64
2022/09/11 02:21:50;;;;;;;;;;;15.90;99.90;;;;;;4992153;28;20669;-65
2022/09/11 02:24:19;;;;;;;;;;;16.00;99.90;;;;;;4995233;28;20226;-65
2022/09/11 02:26:49;;;;;;;;;;;16.00;99.90;;;;;;4985993;28;20199;-65
2022/09/11 02:29:16;;;;;;;;;;;16.00;99.90;;;;;;4985429;28;20232;-64
2022/09/11 02:31:46;;;;;;;;;;;16.10;99.90;;;;;;4984671;28;20196;-66
2022/09/11 02:34:14;;;;;;;;;;;16.10;99.90;;;;;;4985630;28;20197;-64
2022/09/11 02:36:53;;;;;;;;;;;16.10;99.90;;;;;;4986157;28;20199;-68
2022/09/11 02:39:26;;;;;;;;;;;16.10;99.90;;;;;;4985598;28;20199;-64
2022/09/11 02:42:02;;;;;;;;;;;16.10;99.90;;;;;;4984560;28;20199;-64
2022/09/11 02:44:33;;;;;;;;;;;16.10;99.90;;;;;;4984671;28;20203;-65
2022/09/11 02:47:07;;;;;;;;;;;16.00;99.90;;;;;;4986478;28;20187;-64
2022/09/11 02:49:39;;;;;;;;;;;16.10;99.90;;;;;;4985814;28;20199;-64
2022/09/11 02:52:11;;;;;;;;;;;16.10;99.90;;;;;;4984215;28;20243;-67
2022/09/11 02:54:46;;;;;;;;;;;16.20;99.90;;;;;;4985230;28;20207;-64
2022/09/11 02:57:18;;;;;;;;;;;16.20;99.90;;;;;;4984025;28;20195;-64
2022/09/11 02:59:50;;;;;;;;;;;16.20;99.90;;;;;;4985967;28;21732;-65
2022/09/11 03:02:19;;;;;;;;;;;16.30;99.90;;;;;;4984865;28;20203;-66
2022/09/11 03:04:47;;;;;;;;;;;16.40;99.90;;;;;;4985541;28;20211;-64
2022/09/11 03:07:15;;;;;;;;;;;16.40;99.90;;;;;;4984854;28;20204;-65
2022/09/11 03:09:42;;;;;;;;;;;16.50;99.90;;;;;;4985028;28;20202;-64
2022/09/11 03:12:10;;;;;;;;;;;16.40;99.90;;;;;;4985673;28;20207;-66
2022/09/11 03:14:38;;;;;;;;;;;16.40;99.90;;;;;;4983830;28;20200;-65
2022/09/11 03:17:06;;;;;;;;;;;16.50;99.90;;;;;;4984562;28;20220;-66
2022/09/11 03:19:35;;;;;;;;;;;16.60;99.90;;;;;;4984240;28;20211;-65
2022/09/11 03:22:02;;;;;;;;;;;16.70;99.90;;;;;;4984891;28;20196;-64
2022/09/11 03:24:30;;;;;;;;;;;16.80;99.90;;;;;;4984862;28;20207;-65
2022/09/11 03:26:58;;;;;;;;;;;16.90;99.90;;;;;;4986919;28;20200;-64
2022/09/11 03:29:26;;;;;;;;;;;16.90;99.90;;;;;;4985022;28;20634;-64
2022/09/11 03:31:53;;;;;;;;;;;16.90;99.90;;;;;;4984673;28;20073;-64
2022/09/11 03:34:21;;;;;;;;;;;16.90;99.90;;;;;;4985341;28;20676;-64
2022/09/11 03:36:51;;;;;;;;;;;16.90;99.90;;;;;;4985186;28;20207;-64
2022/09/11 03:39:18;;;;;;;;;;;16.90;99.90;;;;;;4985180;28;20200;-64
2022/09/11 03:41:46;;;;;;;;;;;16.90;99.90;;;;;;4992731;28;20206;-64
2022/09/11 03:44:14;;;;;;;;;;;16.70;99.90;;;;;;4993516;28;20672;-64
2022/09/11 03:46:41;;;;;;;;;;;16.70;99.90;;;;;;4983783;28;20258;-64
2022/09/11 03:49:09;;;;;;;;;;;16.50;99.90;;;;;;4985784;28;20203;-64
2022/09/11 03:51:37;;;;;;;;;;;16.50;99.90;;;;;;4990588;28;20197;-64
2022/09/11 03:54:06;;;;;;;;;;;16.50;99.90;;;;;;4992756;28;20206;-64
2022/09/11 03:56:34;;;;;;;;;;;16.50;99.90;;;;;;4984266;28;20200;-64
2022/09/11 03:59:02;;;;;;;;;;;16.40;99.90;;;;;;4985473;28;20537;-64
2022/09/11 04:01:30;;;;;;;;;;;16.40;99.90;;;;;;4983414;28;20291;-64
2022/09/11 04:03:57;;;;;;;;;;;16.30;99.90;;;;;;4985085;28;20206;-64
2022/09/11 04:06:25;;;;;;;;;;;16.30;99.90;;;;;;4983441;28;20206;-65
2022/09/11 04:08:53;;;;;;;;;;;16.20;99.90;;;;;;4984614;28;20203;-63
2022/09/11 04:11:22;;;;;;;;;;;16.20;99.90;;;;;;4983885;28;20197;-63
2022/09/11 04:13:50;;;;;;;;;;;16.20;99.90;;;;;;4984358;28;20210;-64
2022/09/11 04:16:19;;;;;;;;;;;16.20;99.90;;;;;;4983787;28;20208;-64
2022/09/11 04:18:48;;;;;;;;;;;16.10;99.90;;;;;;4983789;28;20619;-63
2022/09/11 04:21:17;;;;;;;;;;;16.20;99.90;;;;;;4983601;28;20632;-64
2022/09/11 04:23:45;;;;;;;;;;;16.20;99.90;;;;;;4978469;28;20211;-64
2022/09/11 04:26:14;;;;;;;;;;;16.30;99.90;;;;;;4973580;28;20676;-64
2022/09/11 04:28:43;;;;;;;;;;;16.20;99.90;;;;;;4981793;28;20246;-64
2022/09/11 04:31:11;;;;;;;;;;;16.30;99.90;;;;;;4982302;28;20552;-64
2022/09/11 04:33:39;;;;;;;;;;;16.30;99.90;;;;;;4983620;28;20667;-64
2022/09/11 04:36:08;;;;;;;;;;;16.30;99.90;;;;;;4983567;28;20681;-64
2022/09/11 04:38:37;;;;;;;;;;;16.30;99.90;;;;;;4983650;28;20703;-64
2022/09/11 04:41:05;;;;;;;;;;;16.30;99.90;;;;;;4983619;28;20207;-64
2022/09/11 04:43:33;;;;;;;;;;;16.10;99.90;;;;;;4983152;28;20815;-64
2022/09/11 04:46:03;;;;;;;;;;;16.00;99.90;;;;;;4982769;28;20215;-64
2022/09/11 04:48:31;;;;;;;;;;;16.00;99.90;;;;;;4978522;28;20204;-64
2022/09/11 04:51:00;;;;;;;;;;;15.90;99.90;;;;;;4978471;28;20214;-64
2022/09/11 04:53:28;;;;;;;;;;;15.80;99.90;;;;;;4985644;28;20192;-64
2022/09/11 04:56:03;;;;;;;;;;;15.80;99.90;;;;;;4983271;28;20196;-64
2022/09/11 04:58:31;;;;;;;;;;;15.60;99.90;;;;;;4981753;28;20213;-64
2022/09/11 05:00:59;;;;;;;;;;;15.50;99.90;;;;;;4983323;28;20210;-64
2022/09/11 05:03:28;;;;;;;;;;;15.40;99.90;;;;;;4983538;28;20195;-64
2022/09/11 05:05:56;;;;;;;;;;;15.40;99.90;;;;;;4982596;28;20265;-64
2022/09/11 05:08:24;;;;;;;;;;;15.30;99.90;;;;;;4985702;28;20229;-64
2022/09/11 05:10:52;;;;;;;;;;;15.30;99.90;;;;;;4986723;28;20201;-64
2022/09/11 05:13:19;;;;;;;;;;;15.30;99.90;;;;;;4992315;28;20200;-64
2022/09/11 05:15:47;;;;;;;;;;;15.20;99.90;;;;;;4996267;28;20584;-64
2022/09/11 05:18:15;;;;;;;;;;;15.20;99.90;;;;;;4990618;28;20311;-64
2022/09/11 05:20:44;;;;;;;;;;;15.30;99.90;;;;;;4982944;28;20211;-64
2022/09/11 05:23:12;;;;;;;;;;;15.30;99.90;;;;;;4986856;28;20196;-64
2022/09/11 05:25:39;;;;;;;;;;;15.30;99.90;;;;;;4987437;28;20195;-64
2022/09/11 05:28:07;;;;;;;;;;;15.30;99.90;;;;;;4987141;28;20195;-64
2022/09/11 05:30:35;;;;;;;;;;;15.30;99.90;;;;;;4985859;28;20205;-64
2022/09/11 05:33:03;;;;;;;;;;;15.30;99.90;;;;;;4984951;28;20202;-64
2022/09/11 05:35:31;;;;;;;;;;;15.40;99.90;;;;;;4987456;28;20685;-64
2022/09/11 05:38:00;;;;;;;;;;;15.40;99.90;;;;;;4986589;28;21041;-65
2022/09/11 05:40:28;;;;;;;;;;;15.50;99.90;;;;;;4985016;28;20562;-64
2022/09/11 05:42:55;;;;;;;;;;;15.60;99.90;;;;;;4984365;28;20214;-63
2022/09/11 05:45:23;;;;;;;;;;;15.60;99.90;;;;;;4984587;28;20710;-64
2022/09/11 05:47:52;;;;;;;;;;;15.70;99.90;;;;;;4986382;28;20209;-64
2022/09/11 05:50:22;;;;;;;;;;;15.70;99.90;;;;;;4981025;28;20286;-64
2022/09/11 05:52:50;;;;;;;;;;;15.80;99.90;;;;;;4985517;28;20206;-64
2022/09/11 05:55:19;;;;;;;;;;;15.80;99.90;;;;;;4985673;28;20230;-64
2022/09/11 05:57:47;;;;;;;;;;;15.90;99.90;;;;;;4986316;28;20673;-64
2022/09/11 06:00:15;;;;;;;;;;;16.00;99.90;;;;;;4987256;28;20234;-64
2022/09/11 06:02:42;;;;;;;;;;;16.00;99.90;;;;;;4984569;28;20188;-64
2022/09/11 06:05:10;;;;;;;;;;;16.20;99.90;;;;;;4986649;28;20195;-64
2022/09/11 06:07:38;;;;;;;;;;;16.20;99.90;;;;;;4980887;28;20241;-64
2022/09/11 06:10:06;;;;;;;;;;;16.30;99.90;;;;;;4979164;28;20232;-64
2022/09/11 06:12:35;;;;;;;;;;;16.40;99.90;;;;;;4981597;28;20287;-67
2022/09/11 06:15:03;;;;;;;;;;;16.50;99.90;;;;;;4976607;28;20210;-64
2022/09/11 06:17:31;;;;;;;;;;;16.70;99.90;;;;;;4976026;28;20241;-66
2022/09/11 06:19:58;;;;;;;;;;;16.70;99.90;;;;;;4975174;28;20207;-67
2022/09/11 06:22:28;;;;;;;;;;;16.70;99.90;;;;;;4976838;28;20207;-66
2022/09/11 06:24:56;;;;;;;;;;;16.80;99.90;;;;;;4976980;28;20298;-66
2022/09/11 06:27:24;;;;;;;;;;;16.90;99.90;;;;;;4978870;28;20207;-66
2022/09/11 06:29:54;;;;;;;;;;;17.10;99.90;;;;;;4981058;28;20212;-66
2022/09/11 06:32:22;;;;;;;;;;;17.20;99.90;;;;;;4979779;28;20204;-67
2022/09/11 06:34:49;;;;;;;;;;;17.20;99.90;;;;;;4982608;28;20207;-64
2022/09/11 06:37:18;;;;;;;;;;;17.40;99.90;;;;;;4983838;28;20212;-64
2022/09/11 06:39:45;;;;;;;;;;;17.40;99.90;;;;;;4976658;28;20293;-64
2022/09/11 06:42:13;;;;;;;;;;;17.40;99.90;;;;;;4975064;28;20212;-64
2022/09/11 06:44:41;;;;;;;;;;;17.40;99.90;;;;;;4976505;28;20199;-68
2022/09/11 06:47:10;;;;;;;;;;;17.30;99.90;;;;;;4977748;28;20205;-64
2022/09/11 06:49:38;;;;;;;;;;;17.30;99.90;;;;;;4979588;28;20672;-67
2022/09/11 06:52:05;;;;;;;;;;;17.40;99.90;;;;;;4975128;28;20218;-65
2022/09/11 06:54:33;;;;;;;;;;;17.40;99.90;;;;;;4975552;28;20203;-64
2022/09/11 06:57:01;;;;;;;;;;;17.40;99.90;;;;;;4982538;28;20638;-63
2022/09/11 06:59:30;;;;;;;;;;;17.40;99.90;;;;;;4977991;28;20199;-64
2022/09/11 07:01:59;;;;;;;;;;;17.60;99.90;;;;;;4973961;28;20215;-65
2022/09/11 07:04:28;;;;;;;;;;;17.60;99.90;;;;;;4974710;28;20283;-66
2022/09/11 07:06:56;;;;;;;;;;;17.70;99.90;;;;;;4977658;28;20214;-64
2022/09/11 07:09:24;;;;;;;;;;;17.60;99.90;;;;;;4976642;28;20226;-67
2022/09/11 07:11:52;;;;;;;;;;;17.60;99.90;;;;;;4975190;28;20208;-67
2022/09/11 07:14:20;;;;;;;;;;;17.60;99.90;;;;;;4983923;28;20196;-63
2022/09/11 07:16:48;;;;;;;;;;;17.60;99.90;;;;;;4975018;28;20478;-65
2022/09/11 07:19:17;;;;;;;;;;;17.60;99.90;;;;;;4976053;28;20681;-63
2022/09/11 07:21:47;;;;;;;;;;;17.50;99.90;;;;;;4979635;28;20212;-66
2022/09/11 07:24:14;;;;;;;;;;;17.50;99.90;;;;;;4976272;28;20214;-64
2022/09/11 07:26:42;;;;;;;;;;;17.50;99.90;;;;;;4982316;28;20208;-65
2022/09/11 07:29:11;;;;;;;;;;;17.50;99.90;;;;;;4984143;28;20208;-64
2022/09/11 07:31:41;;;;;;;;;;;17.50;99.90;;;;;;4975787;28;20661;-68
2022/09/11 07:34:10;;;;;;;;;;;17.60;99.90;;;;;;4975250;28;20213;-64
2022/09/11 07:36:37;;;;;;;;;;;17.70;99.90;;;;;;4975514;28;20215;-66
2022/09/11 07:39:06;;;;;;;;;;;17.90;99.90;;;;;;4976695;28;20191;-65
2022/09/11 07:41:34;;;;;;;;;;;18.00;99.90;;;;;;4974039;28;20195;-66
2022/09/11 07:44:03;;;;;;;;;;;18.10;99.90;;;;;;4974559;28;20211;-66
2022/09/11 07:46:31;;;;;;;;;;;18.20;99.90;;;;;;4976415;28;20294;-65
2022/09/11 07:49:00;;;;;;;;;;;18.20;99.90;;;;;;4975997;28;20199;-66
2022/09/11 07:51:28;;;;;;;;;;;18.40;99.90;;;;;;4975072;28;20257;-65
2022/09/11 07:53:56;;;;;;;;;;;18.50;99.90;;;;;;4974625;28;20287;-64
2022/09/11 07:56:26;;;;;;;;;;;18.80;99.90;;;;;;4975661;28;20290;-66
2022/09/11 07:58:55;;;;;;;;;;;19.00;99.90;;;;;;4977606;28;20212;-63
2022/09/11 08:01:24;;;;;;;;;;;19.00;99.90;;;;;;4974650;28;20214;-64
2022/09/11 08:03:53;;;;;;;;;;;19.00;99.90;;;;;;4975053;28;20208;-65
2022/09/11 08:06:22;;;;;;;;;;;19.00;99.90;;;;;;4974732;28;20206;-64
2022/09/11 08:08:52;;;;;;;;;;;19.10;99.90;;;;;;4974721;28;20210;-63
2022/09/11 08:11:19;;;;;;;;;;;19.20;99.90;;;;;;4973466;28;20556;-63
2022/09/11 08:13:50;;;;;;;;;;;19.20;99.90;;;;;;4973748;28;20207;-63
2022/09/11 08:16:19;;;;;;;;;;;19.20;99.90;;;;;;4975103;28;20239;-63
2022/09/11 08:18:47;;;;;;;;;;;19.30;99.90;;;;;;4982028;28;20215;-63
2022/09/11 08:21:15;;;;;;;;;;;19.30;99.90;;;;;;4973972;28;20206;-64
2022/09/11 08:23:43;;;;;;;;;;;19.40;99.90;;;;;;4973293;28;20210;-64
2022/09/11 08:26:12;;;;;;;;;;;19.50;99.90;;;;;;4974858;28;20199;-66
2022/09/11 08:28:41;;;;;;;;;;;19.70;99.90;;;;;;4974289;28;20326;-68
2022/09/11 08:31:11;;;;;;;;;;;19.80;99.90;;;;;;4972740;28;20208;-68
2022/09/11 08:33:39;;;;;;;;;;;19.80;99.90;;;;;;4974414;28;20196;-64
2022/09/11 08:36:08;;;;;;;;;;;19.70;99.90;;;;;;4973797;28;20731;-65
2022/09/11 08:38:36;;;;;;;;;;;19.60;99.90;;;;;;4974190;28;20214;-64
2022/09/11 08:41:10;;;;;;;;;;;19.60;99.90;;;;;;4974542;28;20206;-63
2022/09/11 08:43:43;;;;;;;;;;;19.40;99.90;;;;;;4972976;28;20200;-65
2022/09/11 08:46:13;;;;;;;;;;;19.30;99.90;;;;;;4974649;28;20195;-66
2022/09/11 08:48:46;;;;;;;;;;;19.30;99.90;;;;;;4973911;28;20207;-65
2022/09/11 08:51:15;;;;;;;;;;;19.30;99.90;;;;;;4973279;28;20204;-64
2022/09/11 08:53:45;;;;;;;;;;;19.20;99.90;;;;;;4973543;28;21251;-63
2022/09/11 08:56:16;;;;;;;;;;;19.10;99.90;;;;;;4974608;28;21353;-67
2022/09/11 08:58:49;;;;;;;;;;;19.20;99.90;;;;;;4975034;28;20231;-63
2022/09/11 09:01:23;;;;;;;;;;;19.20;99.90;;;;;;4973563;28;20211;-64
2022/09/11 09:04:04;;;;;;;;;;;19.30;99.90;;;;;;4973463;28;20201;-64
2022/09/11 09:06:39;;;;;;;;;;;19.40;99.90;;;;;;4971904;28;20215;-67
2022/09/11 09:09:11;;;;;;;;;;;19.70;99.90;;;;;;4968907;28;20195;-68
2022/09/11 09:11:43;;;;;;;;;;;20.10;99.90;;;;;;4973123;28;20541;-64
2022/09/11 09:14:19;;;;;;;;;;;20.70;99.90;;;;;;4973646;28;20206;-65
2022/09/11 09:16:51;;;;;;;;;;;21.10;99.90;;;;;;4974158;28;20220;-65
2022/09/11 09:19:22;;;;;;;;;;;21.40;99.90;;;;;;4974222;28;20285;-66
2022/09/11 09:21:57;;;;;;;;;;;21.70;99.90;;;;;;4973605;28;20215;-63
2022/09/11 09:24:27;;;;;;;;;;;22.00;99.90;;;;;;4974048;28;20204;-68
2022/09/11 09:26:56;;;;;;;;;;;21.90;99.90;;;;;;4975020;28;20203;-66
2022/09/11 09:29:26;;;;;;;;;;;21.80;99.90;;;;;;4974843;28;20824;-63
2022/09/11 09:31:58;;;;;;;;;;;21.60;99.90;;;;;;4972752;28;20703;-65
2022/09/11 09:34:27;;;;;;;;;;;21.30;99.90;;;;;;4974614;28;20212;-63
2022/09/11 09:36:57;;;;;;;;;;;21.30;99.90;;;;;;4974417;28;20202;-65
2022/09/11 09:39:24;;;;;;;;;;;21.30;99.90;;;;;;4973433;28;20204;-64
2022/09/11 09:42:04;;;;;;;;;;;21.20;99.90;;;;;;4978248;28;20211;-66
2022/09/11 09:44:37;;;;;;;;;;;21.20;99.90;;;;;;4974088;28;20226;-65
2022/09/11 09:47:10;;;;;;;;;;;21.10;99.90;;;;;;4973193;28;20196;-64
2022/09/11 09:49:38;;;;;;;;;;;21.50;99.90;;;;;;4974953;28;20294;-66
2022/09/11 09:52:12;;;;;;;;;;;21.90;99.90;;;;;;4974390;28;20200;-67
2022/09/11 09:54:40;;;;;;;;;;;22.40;99.90;;;;;;4973414;28;20207;-64
2022/09/11 09:57:09;;;;;;;;;;;22.80;99.90;;;;;;4977706;28;20238;-63
2022/09/11 09:59:44;;;;;;;;;;;22.60;99.90;;;;;;4978106;28;20286;-65
2022/09/11 10:02:29;;;;;;;;;;;22.40;99.90;;;;;;4977808;28;20964;-66
2022/09/11 10:05:05;;;;;;;;;;;22.10;99.90;;;;;;4977390;28;20210;-67
2022/09/11 10:07:33;;;;;;;;;;;21.70;99.90;;;;;;4978371;28;20212;-64
2022/09/11 10:10:02;;;;;;;;;;;21.50;99.90;;;;;;4977845;28;20200;-65
2022/09/11 10:12:31;;;;;;;;;;;21.50;99.90;;;;;;4984312;28;20203;-63
2022/09/11 10:15:00;;;;;;;;;;;21.40;99.90;;;;;;4985185;28;20188;-63
2022/09/11 10:17:34;;;;;;;;;;;21.40;99.90;;;;;;4983679;28;20204;-63
2022/09/11 10:20:17;;;;;;;;;;;21.50;99.90;;;;;;4985340;28;20199;-64
2022/09/11 10:22:45;;;;;;;;;;;21.50;99.90;;;;;;4986150;28;20206;-65
2022/09/11 10:25:14;;;;;;;;;;;21.50;99.90;;;;;;4986493;28;20310;-63
2022/09/11 10:27:49;;;;;;;;;;;21.40;99.90;;;;;;4984993;28;20196;-65
2022/09/11 10:30:30;;;;;;;;;;;21.60;99.90;;;;;;4984612;28;20924;-64
2022/09/11 10:33:01;;;;;;;;;;;21.40;99.90;;;;;;5023328;22;20229;-64
2022/09/11 10:35:31;;;;;;;;;;;21.30;99.90;;;;;;5029449;28;20211;-63
2022/09/11 10:38:00;;;;;;;;;;;21.20;99.90;;;;;;5022723;28;20201;-63
2022/09/11 10:40:29;;;;;;;;;;;20.90;99.90;;;;;;5031252;28;20205;-63
2022/09/11 10:42:57;;;;;;;;;;;20.80;99.90;;;;;;5026906;28;20199;-64
2022/09/11 10:45:25;;;;;;;;;;;20.60;99.90;;;;;;5022270;28;20599;-63
2022/09/11 10:47:53;;;;;;;;;;;20.50;99.90;;;;;;5028167;28;20273;-63
2022/09/11 10:50:24;;;;;;;;;;;20.30;99.90;;;;;;5032729;28;20191;-63
2022/09/11 10:52:58;;;;;;;;;;;20.10;99.90;;;;;;5025672;28;20194;-64
2022/09/11 10:55:27;;;;;;;;;;;19.90;99.90;;;;;;5033396;28;20205;-63
2022/09/11 10:57:59;;;;;;;;;;;19.70;99.90;;;;;;5024355;28;20304;-64
2022/09/11 11:00:27;;;;;;;;;;;19.50;99.90;;;;;;5025375;28;20199;-63
2022/09/11 11:02:56;;;;;;;;;;;19.40;99.90;;;;;;5032826;28;20202;-63
2022/09/11 11:05:28;;;;;;;;;;;19.20;99.90;;;;;;5025109;28;20703;-63
2022/09/11 11:08:03;;;;;;;;;;;19.20;99.90;;;;;;5032994;28;20743;-63
2022/09/11 11:10:35;;;;;;;;;;;19.10;99.90;;;;;;5025151;28;20683;-63
2022/09/11 11:13:12;;;;;;;;;;;19.20;99.90;;;;;;5025449;28;20684;-63
2022/09/11 11:15:56;;;;;;;;;;;19.30;99.90;;;;;;5020367;28;20270;-63
2022/09/11 11:18:34;;;;;;;;;;;19.50;99.90;;;;;;5030644;28;20715;-63
2022/09/11 11:21:08;;;;;;;;;;;19.70;99.90;;;;;;5028536;28;20199;-63
2022/09/11 11:23:55;;;;;;;;;;;19.70;99.90;;;;;;5029291;28;20195;-63
2022/09/11 11:26:32;;;;;;;;;;;19.80;99.90;;;;;;5031570;28;20194;-63
2022/09/11 11:29:07;;;;;;;;;;;20.00;99.90;;;;;;5019921;28;20247;-63
2022/09/11 11:31:44;;;;;;;;;;;20.20;99.90;;;;;;5025075;28;20206;-63
2022/09/11 11:34:21;;;;;;;;;;;20.40;99.90;;;;;;5032226;28;20195;-63
2022/09/11 11:36:55;;;;;;;;;;;20.50;99.90;;;;;;5027058;28;20195;-63
2022/09/11 11:39:24;;;;;;;;;;;20.70;99.90;;;;;;5027064;28;20195;-63
2022/09/11 11:41:58;;;;;;;;;;;21.10;99.90;;;;;;5017315;28;20195;-63
2022/09/11 11:44:29;;;;;;;;;;;21.60;99.90;;;;;;5024691;28;20195;-63
2022/09/11 11:46:59;;;;;;;;;;;22.30;99.90;;;;;;5032282;28;20564;-64
2022/09/11 11:49:27;;;;;;;;;;;22.60;99.90;;;;;;5020757;28;20193;-63
2022/09/11 11:52:04;;;;;;;;;;;22.80;99.90;;;;;;5027214;28;20569;-63
2022/09/11 11:54:36;;;;;;;;;;;22.60;99.90;;;;;;5032319;28;20199;-64
2022/09/11 11:57:09;;;;;;;;;;;22.60;99.90;;;;;;5032185;28;20210;-63
2022/09/11 11:59:41;;;;;;;;;;;22.60;99.90;;;;;;5021331;28;20195;-63
2022/09/11 12:02:15;;;;;;;;;;;22.60;99.90;;;;;;5024209;28;20779;-63
2022/09/11 12:04:45;;;;;;;;;;;22.70;99.90;;;;;;5013630;28;20254;-63
2022/09/11 12:07:18;;;;;;;;;;;22.70;99.90;;;;;;5024422;28;20194;-64
2022/09/11 12:09:48;;;;;;;;;;;22.80;99.90;;;;;;5031412;28;20202;-63
2022/09/11 12:12:16;;;;;;;;;;;22.80;99.90;;;;;;5025374;28;20205;-63
2022/09/11 12:14:48;;;;;;;;;;;22.60;99.90;;;;;;5025351;28;20205;-64
2022/09/11 12:17:18;;;;;;;;;;;22.50;99.90;;;;;;5030631;28;20183;-64
2022/09/11 12:20:06;;;;;;;;;;;22.50;99.90;;;;;;5024403;28;20199;-63
2022/09/11 12:22:37;;;;;;;;;;;22.70;99.90;;;;;;5023662;28;20199;-64
2022/09/11 12:25:26;;;;;;;;;;;23.10;99.90;;;;;;5031682;28;20302;-63
2022/09/11 12:28:09;;;;;;;;;;;23.30;99.90;;;;;;5026427;28;20583;-64
2022/09/11 12:30:52;;;;;;;;;;;23.60;99.90;;;;;;5030357;28;20201;-63
2022/09/11 12:33:35;;;;;;;;;;;23.80;99.90;;;;;;5007935;28;20574;-63
2022/09/11 12:36:05;;;;;;;;;;;24.20;99.90;;;;;;5024472;28;20195;-63
2022/09/11 12:38:36;;;;;;;;;;;24.40;99.90;;;;;;5031552;28;20213;-65
2022/09/11 12:41:08;;;;;;;;;;;24.50;99.90;;;;;;5030036;28;20195;-64
2022/09/11 12:43:47;;;;;;;;;;;24.40;99.90;;;;;;5023946;28;20675;-63
2022/09/11 12:46:34;;;;;;;;;;;24.50;99.90;;;;;;5029010;28;20286;-64
2022/09/11 12:49:08;;;;;;;;;;;24.70;99.90;;;;;;5027332;28;20203;-64
2022/09/11 12:51:54;;;;;;;;;;;24.60;99.90;;;;;;5013037;28;20656;-64
2022/09/11 12:54:23;;;;;;;;;;;24.60;99.90;;;;;;5020121;28;20202;-63
2022/09/11 12:56:58;;;;;;;;;;;24.70;99.90;;;;;;5023003;28;20186;-64
2022/09/11 12:59:29;;;;;;;;;;;25.20;99.90;;;;;;5030745;28;20203;-62
2022/09/11 13:01:57;;;;;;;;;;;25.70;99.90;;;;;;5028185;28;20198;-64
2022/09/11 13:04:27;;;;;;;;;;;26.20;99.90;;;;;;5029731;28;20203;-63
2022/09/11 13:06:57;;;;;;;;;;;26.80;99.90;;;;;;5023277;28;20668;-63
2022/09/11 13:09:26;;;;;;;;;;;27.20;99.90;;;;;;5020452;28;20203;-66
2022/09/11 13:11:55;;;;;;;;;;;27.50;99.90;;;;;;5023585;28;20221;-65
2022/09/11 13:14:37;;;;;;;;;;;27.40;99.90;;;;;;5031017;28;20201;-64
2022/09/11 13:17:13;;;;;;;;;;;27.60;99.90;;;;;;5025535;28;20618;-64
2022/09/11 13:19:41;;;;;;;;;;;28.10;99.90;;;;;;5019993;28;20202;-63
2022/09/11 13:22:22;;;;;;;;;;;28.30;99.90;;;;;;5028180;28;20274;-64
2022/09/11 13:24:51;;;;;;;;;;;28.00;99.90;;;;;;5023681;28;20207;-64
2022/09/11 13:27:23;;;;;;;;;;;27.80;99.90;;;;;;5028980;28;20203;-64
2022/09/11 13:29:51;;;;;;;;;;;27.40;99.90;;;;;;5027485;28;20553;-64
2022/09/11 13:32:21;;;;;;;;;;;27.40;99.90;;;;;;5026026;28;20318;-63
2022/09/11 13:34:50;;;;;;;;;;;27.20;99.90;;;;;;5028998;28;20205;-63
2022/09/11 13:37:26;;;;;;;;;;;27.10;99.90;;;;;;5023469;28;20201;-64
2022/09/11 13:39:53;;;;;;;;;;;27.00;99.90;;;;;;5030095;28;20207;-64
2022/09/11 13:42:24;;;;;;;;;;;26.80;99.90;;;;;;5024422;28;20199;-63
2022/09/11 13:44:53;;;;;;;;;;;27.00;99.90;;;;;;5027765;28;20199;-64
2022/09/11 13:47:23;;;;;;;;;;;27.20;99.90;;;;;;5028618;28;20195;-64
2022/09/11 13:49:51;;;;;;;;;;;26.90;99.90;;;;;;5030651;28;20217;-65
2022/09/11 13:52:21;;;;;;;;;;;26.70;99.90;;;;;;5027225;28;20199;-64
2022/09/11 13:54:50;;;;;;;;;;;26.60;99.90;;;;;;5032332;28;20206;-63
2022/09/11 13:57:19;;;;;;;;;;;26.70;99.90;;;;;;5029521;28;20203;-64
2022/09/11 13:59:48;;;;;;;;;;;26.80;99.90;;;;;;5028910;28;20195;-64
2022/09/11 14:02:22;;;;;;;;;;;26.80;99.90;;;;;;5026760;28;20198;-63
2022/09/11 14:04:52;;;;;;;;;;;27.20;99.90;;;;;;5031948;28;20194;-64
2022/09/11 14:07:21;;;;;;;;;;;27.70;99.90;;;;;;5028363;28;20569;-63
2022/09/11 14:09:50;;;;;;;;;;;28.10;99.90;;;;;;5029838;28;20065;-64
2022/09/11 14:12:19;;;;;;;;;;;28.60;99.90;;;;;;5030306;28;20682;-64
2022/09/11 14:14:50;;;;;;;;;;;28.50;99.70;;;;;;5033707;28;20659;-64
2022/09/11 14:17:17;;;;;;;;;;;28.70;99.40;;;;;;5026963;28;20660;-64
2022/09/11 14:19:45;;;;;;;;;;;28.40;98.80;;;;;;5026724;28;20581;-64
2022/09/11 14:22:15;;;;;;;;;;;28.50;98.20;;;;;;5031512;28;20197;-64
2022/09/11 14:24:50;;;;;;;;;;;28.70;99.00;;;;;;5024920;28;20198;-64
2022/09/11 14:27:36;;;;;;;;;;;29.00;97.90;;;;;;5027587;28;20545;-64
2022/09/11 14:30:18;;;;;;;;;;;29.00;97.80;;;;;;5027785;28;21869;-63
2022/09/11 14:32:46;;;;;;;;;;;29.20;96.90;;;;;;5025905;28;20203;-63
2022/09/11 14:35:13;;;;;;;;;;;29.20;96.30;;;;;;5028948;28;20190;-64